createdAt,value
2022-12-26T00:02:06.760Z,27.50
2022-12-26T00:04:50.679Z,29.30
2022-12-26T00:07:24.191Z,24.50
2022-12-26T00:09:56.084Z,28.90
2022-12-26T00:12:27.635Z,27.00
2022-12-26T00:14:59.049Z,27.60
2022-12-26T00:17:30.556Z,25.40
2022-12-26T00:20:02.094Z,31.40
2022-12-26T00:22:33.743Z,24.40
2022-12-26T00:25:05.848Z,27.70
2022-12-26T00:27:37.822Z,29.00
2022-12-26T00:30:13.450Z,28.60
2022-12-26T00:32:45.019Z,27.00
2022-12-26T00:35:16.894Z,25.40
2022-12-26T00:37:48.502Z,27.20
2022-12-26T00:40:21.202Z,27.20
2022-12-26T00:42:52.992Z,30.10
2022-12-26T00:45:25.154Z,28.10
2022-12-26T00:47:57.054Z,27.80
2022-12-26T00:50:34.383Z,27.70
2022-12-26T00:53:06.605Z,26.00
2022-12-26T00:55:38.092Z,26.40
2022-12-26T00:58:09.777Z,27.70
2022-12-26T01:00:41.723Z,32.10
2022-12-26T01:03:14.375Z,30.50
2022-12-26T01:05:48.174Z,31.80
2022-12-26T01:08:24.605Z,31.00
2022-12-26T01:10:56.933Z,33.20
2022-12-26T01:13:28.365Z,30.50
2022-12-26T01:16:00.117Z,31.00
2022-12-26T01:18:32.460Z,33.40
2022-12-26T01:21:05.614Z,30.20
2022-12-26T01:23:37.948Z,36.00
2022-12-26T01:26:18.228Z,35.00
2022-12-26T01:28:52.519Z,28.20
2022-12-26T01:31:24.695Z,34.40
2022-12-26T01:33:56.604Z,33.80
2022-12-26T01:36:28.796Z,31.70
2022-12-26T01:39:00.245Z,35.40
2022-12-26T01:41:33.454Z,34.00
2022-12-26T01:44:07.528Z,30.30
2022-12-26T01:46:42.169Z,29.50
2022-12-26T01:49:18.752Z,34.30
2022-12-26T01:51:55.235Z,31.20
2022-12-26T01:54:40.605Z,33.90
2022-12-26T01:57:19.070Z,29.70
2022-12-26T01:59:53.124Z,30.00
2022-12-26T02:02:26.881Z,29.00
2022-12-26T02:05:17.503Z,28.20
2022-12-26T02:07:49.771Z,28.10
2022-12-26T02:10:25.429Z,28.70
2022-12-26T02:12:57.057Z,26.80
2022-12-26T02:15:29.633Z,31.80
2022-12-26T02:18:01.106Z,30.90
2022-12-26T02:20:42.527Z,32.70
2022-12-26T02:23:49.481Z,31.60
2022-12-26T02:26:44.246Z,33.30
2022-12-26T02:29:58.884Z,28.10
2022-12-26T02:32:43.221Z,28.40
2022-12-26T02:35:22.574Z,27.70
2022-12-26T02:38:04.569Z,27.70
2022-12-26T02:40:48.821Z,33.40
2022-12-26T02:43:29.428Z,24.80
2022-12-26T02:46:32.151Z,29.10
2022-12-26T02:49:14.019Z,27.20
2022-12-26T02:52:15.320Z,28.70
2022-12-26T02:55:11.246Z,25.90
2022-12-26T02:58:10.158Z,24.20
2022-12-26T03:01:02.813Z,29.60
2022-12-26T03:03:55.924Z,23.60
2022-12-26T03:06:48.270Z,29.80
2022-12-26T03:09:41.273Z,28.10
2022-12-26T03:12:50.166Z,29.70
2022-12-26T03:15:23.844Z,34.50
2022-12-26T03:17:58.945Z,28.50
2022-12-26T03:20:33.396Z,29.10
2022-12-26T03:23:08.351Z,26.10
2022-12-26T03:26:03.845Z,21.90
2022-12-26T03:31:08.478Z,27.60
2022-12-26T03:34:00.074Z,27.60
2022-12-26T03:36:43.915Z,26.00
2022-12-26T03:39:45.655Z,31.30
2022-12-26T03:42:40.832Z,31.10
2022-12-26T03:45:43.450Z,25.80
2022-12-26T03:48:44.209Z,26.20
2022-12-26T03:51:39.916Z,26.90
2022-12-26T03:54:34.894Z,26.40
2022-12-26T03:57:28.564Z,28.50
2022-12-26T04:00:22.138Z,27.70
2022-12-26T04:03:13.503Z,28.50
2022-12-26T04:06:07.526Z,30.50
2022-12-26T04:09:05.319Z,28.90
2022-12-26T04:11:58.579Z,31.90
2022-12-26T04:14:59.804Z,28.90
2022-12-26T04:17:54.088Z,25.30
2022-12-26T04:20:31.767Z,29.40
2022-12-26T04:23:25.880Z,23.50
2022-12-26T04:26:20.996Z,26.50
2022-12-26T04:29:10.359Z,27.20
2022-12-26T04:32:12.920Z,28.00
2022-12-26T04:35:12.023Z,27.90
2022-12-26T04:38:04.685Z,27.50
2022-12-26T04:41:00.126Z,27.50
2022-12-26T04:43:52.085Z,29.50
2022-12-26T04:46:25.472Z,28.90
2022-12-26T04:49:15.379Z,31.80
2022-12-26T04:51:46.823Z,26.10
2022-12-26T04:54:18.609Z,30.80
2022-12-26T04:56:50.214Z,25.10
2022-12-26T04:59:23.151Z,26.50
2022-12-26T05:02:11.891Z,29.20
2022-12-26T05:05:01.174Z,29.80
2022-12-26T05:07:52.664Z,32.10
2022-12-26T05:10:25.970Z,27.50
2022-12-26T05:12:58.138Z,26.30
2022-12-26T05:15:49.864Z,27.10
2022-12-26T05:18:39.337Z,30.10
2022-12-26T05:21:33.824Z,26.30
2022-12-26T05:24:23.868Z,30.10
2022-12-26T05:27:13.224Z,28.30
2022-12-26T05:29:44.740Z,28.40
2022-12-26T05:32:29.956Z,23.70
2022-12-26T05:37:31.525Z,28.90
2022-12-26T05:40:03.209Z,28.40
2022-12-26T05:42:34.981Z,27.10
2022-12-26T05:45:07.475Z,29.60
2022-12-26T05:47:39.229Z,27.30
2022-12-26T05:50:12.497Z,23.80
2022-12-26T05:52:44.093Z,27.90
2022-12-26T05:55:15.835Z,26.50
2022-12-26T05:57:47.446Z,27.80
2022-12-26T06:00:20.952Z,26.20
2022-12-26T06:02:53.409Z,25.10
2022-12-26T06:05:25.573Z,31.80
2022-12-26T06:07:57.161Z,26.30
2022-12-26T06:10:30.057Z,27.80
2022-12-26T06:13:03.355Z,27.00
2022-12-26T06:15:34.818Z,28.60
2022-12-26T06:18:06.271Z,27.90
2022-12-26T06:20:39.919Z,28.20
2022-12-26T06:23:11.737Z,33.10
2022-12-26T06:25:43.256Z,27.40
2022-12-26T06:28:14.684Z,25.90
2022-12-26T06:30:46.132Z,25.80
2022-12-26T06:33:17.900Z,25.80
2022-12-26T06:35:50.052Z,29.20
2022-12-26T06:38:21.453Z,28.20
2022-12-26T06:40:53.069Z,25.60
2022-12-26T06:43:25.114Z,27.40
2022-12-26T06:46:00.523Z,30.00
2022-12-26T06:48:32.287Z,28.80
2022-12-26T06:51:06.825Z,28.50
2022-12-26T06:53:38.527Z,27.70
2022-12-26T06:56:12.036Z,29.40
2022-12-26T06:58:43.613Z,25.50
2022-12-26T07:01:17.759Z,27.20
2022-12-26T07:03:51.883Z,32.00
2022-12-26T07:06:28.076Z,31.40
2022-12-26T07:09:02.054Z,26.10
2022-12-26T07:11:35.765Z,31.50
2022-12-26T07:14:08.289Z,41.20
2022-12-26T07:16:41.330Z,31.50
2022-12-26T07:19:15.022Z,35.50
2022-12-26T07:21:46.785Z,27.40
2022-12-26T07:24:19.946Z,29.20
2022-12-26T07:26:52.521Z,27.00
2022-12-26T07:29:24.126Z,31.20
2022-12-26T07:31:55.748Z,35.40
2022-12-26T07:34:31.612Z,40.00
2022-12-26T07:37:03.700Z,34.10
2022-12-26T07:39:36.091Z,33.20
2022-12-26T07:42:08.404Z,35.10
2022-12-26T07:44:40.811Z,29.90
2022-12-26T07:47:13.900Z,33.30
2022-12-26T07:49:45.810Z,27.40
2022-12-26T07:52:17.475Z,33.20
2022-12-26T07:54:49.177Z,31.80
2022-12-26T07:57:49.942Z,31.60
2022-12-26T08:00:15.791Z,36.00
2022-12-26T08:05:18.382Z,32.60
2022-12-26T08:07:51.464Z,35.00
2022-12-26T08:10:23.714Z,33.80
2022-12-26T08:12:55.184Z,34.60
2022-12-26T08:15:26.690Z,34.80
2022-12-26T08:17:58.179Z,34.00
2022-12-26T08:20:30.041Z,32.60
2022-12-26T08:23:01.610Z,35.00
2022-12-26T08:25:33.149Z,33.30
2022-12-26T08:28:04.770Z,32.00
2022-12-26T08:30:36.371Z,32.10
2022-12-26T08:33:08.031Z,33.40
2022-12-26T08:35:40.365Z,35.60
2022-12-26T08:38:12.836Z,38.80
2022-12-26T08:40:44.697Z,33.20
2022-12-26T08:46:10.755Z,37.60
2022-12-26T08:48:43.602Z,33.80
2022-12-26T08:51:18.103Z,38.60
2022-12-26T08:53:51.016Z,40.20
2022-12-26T08:56:24.693Z,37.50
2022-12-26T08:58:56.479Z,32.30
2022-12-26T09:01:30.025Z,33.80
2022-12-26T09:04:04.279Z,28.70
2022-12-26T09:06:38.513Z,29.00
2022-12-26T09:09:13.002Z,32.80
2022-12-26T09:11:45.027Z,35.70
2022-12-26T09:14:16.547Z,35.40
2022-12-26T09:16:51.032Z,38.10
2022-12-26T09:22:14.494Z,34.00
2022-12-26T09:24:46.752Z,36.60
2022-12-26T09:27:18.301Z,34.30
2022-12-26T09:29:49.739Z,35.70
2022-12-26T09:32:21.167Z,38.00
2022-12-26T09:34:53.298Z,35.50
2022-12-26T09:37:24.953Z,33.30
2022-12-26T09:39:56.659Z,33.90
2022-12-26T09:42:38.555Z,32.80
2022-12-26T09:45:16.001Z,30.40
2022-12-26T09:47:59.569Z,29.60
2022-12-26T09:50:37.079Z,33.40
2022-12-26T09:53:17.184Z,35.90
2022-12-26T09:55:53.936Z,31.50
2022-12-26T09:58:30.966Z,32.70
2022-12-26T10:01:09.693Z,31.10
2022-12-26T10:03:44.489Z,32.70
2022-12-26T10:06:19.483Z,33.50
2022-12-26T10:09:14.472Z,29.70
2022-12-26T10:12:02.289Z,34.70
2022-12-26T10:14:45.564Z,30.00
2022-12-26T10:17:26.554Z,36.80
2022-12-26T10:20:14.622Z,33.40
2022-12-26T10:23:12.351Z,31.90
2022-12-26T10:25:48.730Z,30.50
2022-12-26T10:28:32.177Z,29.90
2022-12-26T10:31:09.240Z,31.80
2022-12-26T10:33:47.575Z,32.50
2022-12-26T10:36:28.198Z,28.50
2022-12-26T10:39:03.097Z,28.20
2022-12-26T10:41:42.525Z,22.70
2022-12-26T10:44:16.340Z,24.30
2022-12-26T10:47:05.860Z,22.10
2022-12-26T10:49:37.680Z,21.50
2022-12-26T10:52:12.269Z,22.60
2022-12-26T10:57:14.705Z,23.60
2022-12-26T10:59:49.734Z,20.90
2022-12-26T11:02:29.198Z,19.70
2022-12-26T11:05:18.421Z,22.20
2022-12-26T11:08:09.625Z,22.40
2022-12-26T11:10:41.406Z,21.50
2022-12-26T11:13:23.670Z,19.40
2022-12-26T11:15:56.584Z,20.30
2022-12-26T11:18:36.357Z,21.00
2022-12-26T11:21:23.683Z,17.70
2022-12-26T11:24:13.122Z,18.30
2022-12-26T11:26:44.584Z,17.10
2022-12-26T11:29:18.252Z,15.70
2022-12-26T11:31:58.721Z,19.00
2022-12-26T11:34:35.876Z,15.20
2022-12-26T11:37:08.980Z,16.00
2022-12-26T11:39:41.339Z,13.10
2022-12-26T11:42:22.298Z,15.60
2022-12-26T11:44:55.790Z,14.60
2022-12-26T11:47:30.492Z,16.10
2022-12-26T11:52:44.106Z,14.80
2022-12-26T11:55:39.491Z,17.20
2022-12-26T11:58:19.793Z,20.00
2022-12-26T12:01:09.713Z,15.50
2022-12-26T12:03:49.228Z,15.10
2022-12-26T12:06:47.468Z,19.10
2022-12-26T12:09:29.486Z,26.00
2022-12-26T12:12:09.282Z,19.60
2022-12-26T12:14:55.196Z,22.50
2022-12-26T12:17:32.522Z,21.60
2022-12-26T12:20:25.474Z,17.70
2022-12-26T12:23:22.624Z,14.20
2022-12-26T12:26:08.309Z,17.50
2022-12-26T12:29:14.537Z,15.60
2022-12-26T12:32:01.373Z,14.10
2022-12-26T12:34:53.008Z,15.70
2022-12-26T12:37:34.010Z,15.10
2022-12-26T12:40:17.570Z,14.30
2022-12-26T12:42:57.184Z,12.80
2022-12-26T12:45:32.831Z,17.10
2022-12-26T12:48:35.669Z,12.10
2022-12-26T12:51:15.354Z,15.60
2022-12-26T12:54:34.663Z,15.30
2022-12-26T12:57:14.598Z,14.60
2022-12-26T13:00:00.913Z,19.00
2022-12-26T13:02:38.221Z,17.30
2022-12-26T13:05:24.156Z,13.10
2022-12-26T13:08:00.810Z,18.50
2022-12-26T13:10:34.828Z,18.30
2022-12-26T13:13:17.258Z,17.10
2022-12-26T13:15:54.497Z,14.40
2022-12-26T13:18:31.192Z,12.80
2022-12-26T13:21:07.583Z,12.90
2022-12-26T13:23:59.709Z,14.80
2022-12-26T13:26:36.301Z,11.10
2022-12-26T13:29:13.744Z,13.80
2022-12-26T13:31:46.158Z,13.40
2022-12-26T13:34:21.863Z,12.90
2022-12-26T13:36:55.040Z,13.80
2022-12-26T13:39:40.453Z,14.90
2022-12-26T13:42:48.228Z,13.30
2022-12-26T13:45:51.007Z,14.20
2022-12-26T13:49:08.482Z,13.40
2022-12-26T13:51:58.310Z,16.30
2022-12-26T13:54:33.999Z,16.70
2022-12-26T13:57:29.192Z,17.60
2022-12-26T14:00:11.268Z,17.60
2022-12-26T14:03:18.409Z,19.00
2022-12-26T14:06:18.452Z,15.50
2022-12-26T14:09:06.878Z,17.50
2022-12-26T14:11:51.367Z,16.60
2022-12-26T14:14:34.242Z,15.60
2022-12-26T14:17:17.098Z,16.70
2022-12-26T14:20:02.213Z,18.40
2022-12-26T14:25:23.625Z,20.20
2022-12-26T14:28:04.202Z,27.60
2022-12-26T14:30:52.389Z,29.70
2022-12-26T14:33:31.131Z,29.60
2022-12-26T14:36:15.700Z,23.60
2022-12-26T14:38:53.321Z,22.10
2022-12-26T14:41:42.842Z,22.30
2022-12-26T14:44:39.914Z,23.00
2022-12-26T14:47:13.806Z,20.00
2022-12-26T14:49:46.590Z,21.30
2022-12-26T14:52:43.822Z,23.00
2022-12-26T14:55:50.795Z,20.40
2022-12-26T14:58:42.457Z,19.30
2022-12-26T15:01:49.076Z,20.50
2022-12-26T15:04:53.111Z,22.10
2022-12-26T15:07:48.081Z,20.50
2022-12-26T15:11:08.299Z,22.10
2022-12-26T15:14:17.510Z,22.50
2022-12-26T15:17:01.645Z,21.60
2022-12-26T15:20:28.575Z,19.20
2022-12-26T15:23:41.927Z,16.70
2022-12-26T15:26:26.169Z,22.10
2022-12-26T15:29:44.162Z,19.10
2022-12-26T15:32:22.382Z,19.30
2022-12-26T15:35:14.447Z,22.60
2022-12-26T15:38:19.853Z,19.60
2022-12-26T15:41:11.668Z,21.10
2022-12-26T15:43:55.103Z,19.60
2022-12-26T15:46:31.879Z,19.40
2022-12-26T15:49:33.943Z,16.10
2022-12-26T15:52:16.220Z,20.20
2022-12-26T15:55:14.452Z,21.70
2022-12-26T15:57:54.712Z,17.50
2022-12-26T16:00:28.457Z,19.60
2022-12-26T16:03:21.252Z,16.20
2022-12-26T16:06:02.275Z,19.90
2022-12-26T16:08:47.540Z,20.20
2022-12-26T16:11:22.839Z,19.70
2022-12-26T16:14:01.146Z,18.90
2022-12-26T16:16:38.659Z,19.10
2022-12-26T16:19:22.309Z,19.40
2022-12-26T16:22:14.868Z,20.80
2022-12-26T16:24:51.717Z,21.00
2022-12-26T16:27:25.477Z,18.00
2022-12-26T16:30:02.075Z,22.40
2022-12-26T16:32:40.000Z,21.90
2022-12-26T16:35:22.494Z,19.70
2022-12-26T16:37:55.894Z,20.60
2022-12-26T16:40:30.537Z,21.40
2022-12-26T16:43:05.724Z,18.10
2022-12-26T16:45:39.355Z,23.20
2022-12-26T16:48:15.111Z,20.50
2022-12-26T16:50:51.377Z,17.50
2022-12-26T16:53:24.625Z,16.80
2022-12-26T16:56:01.239Z,16.50
2022-12-26T16:58:38.516Z,17.90
2022-12-26T17:01:13.928Z,14.30
2022-12-26T17:03:54.488Z,19.40
2022-12-26T17:06:31.305Z,15.20
2022-12-26T17:09:10.127Z,16.00
2022-12-26T17:11:54.776Z,18.10
2022-12-26T17:14:30.012Z,15.80
2022-12-26T17:17:03.872Z,16.00
2022-12-26T17:19:37.730Z,16.70
2022-12-26T17:22:31.714Z,16.30
2022-12-26T17:25:26.702Z,16.80
2022-12-26T17:28:26.084Z,20.20
2022-12-26T17:30:57.842Z,16.60
2022-12-26T17:33:31.179Z,16.20
2022-12-26T17:38:59.994Z,16.40
2022-12-26T17:41:32.230Z,16.40
2022-12-26T17:44:25.422Z,13.10
2022-12-26T17:46:57.810Z,15.70
2022-12-26T17:49:29.543Z,15.40
2022-12-26T17:52:02.127Z,13.30
2022-12-26T17:54:34.646Z,14.70
2022-12-26T17:57:06.884Z,12.90
2022-12-26T17:59:38.395Z,14.70
2022-12-26T18:02:11.289Z,12.40
2022-12-26T18:04:43.076Z,14.60
2022-12-26T18:07:18.599Z,14.60
2022-12-26T18:09:51.325Z,14.40
2022-12-26T18:12:24.397Z,24.10
2022-12-26T18:15:01.790Z,17.20
2022-12-26T18:17:36.588Z,16.00
2022-12-26T18:20:13.850Z,12.30
2022-12-26T18:22:48.142Z,13.00
2022-12-26T18:25:21.759Z,15.40
2022-12-26T18:27:54.588Z,12.30
2022-12-26T18:30:28.086Z,18.20
2022-12-26T18:33:00.683Z,13.10
2022-12-26T18:35:34.370Z,13.40
2022-12-26T18:38:06.302Z,14.90
2022-12-26T18:40:39.836Z,11.80
2022-12-26T18:43:12.781Z,14.30
2022-12-26T18:45:45.348Z,14.10
2022-12-26T18:48:20.527Z,12.20
2022-12-26T18:50:52.493Z,12.30
2022-12-26T18:53:24.503Z,11.50
2022-12-26T18:55:56.812Z,12.10
2022-12-26T18:58:28.904Z,11.40
2022-12-26T19:01:01.415Z,12.50
2022-12-26T19:03:33.364Z,14.70
2022-12-26T19:06:05.529Z,11.60
2022-12-26T19:08:37.452Z,10.80
2022-12-26T19:11:10.869Z,14.40
2022-12-26T19:13:44.595Z,13.80
2022-12-26T19:16:16.702Z,11.90
2022-12-26T19:18:49.281Z,13.60
2022-12-26T19:21:21.013Z,9.10
2022-12-26T19:23:53.152Z,12.20
2022-12-26T19:26:25.651Z,12.60
2022-12-26T19:28:58.564Z,11.30
2022-12-26T19:31:31.447Z,10.90
2022-12-26T19:34:03.414Z,9.80
2022-12-26T19:36:35.386Z,12.10
2022-12-26T19:39:09.789Z,13.50
2022-12-26T19:44:16.311Z,13.50
2022-12-26T19:46:48.524Z,13.00
2022-12-26T19:49:22.628Z,16.00
2022-12-26T19:51:56.914Z,13.60
2022-12-26T19:54:32.556Z,13.10
2022-12-26T19:57:07.264Z,13.60
2022-12-26T20:02:12.787Z,11.80
2022-12-26T20:04:45.184Z,13.70
2022-12-26T20:07:17.457Z,11.70
2022-12-26T20:09:51.417Z,12.80
2022-12-26T20:12:23.584Z,12.30
2022-12-26T20:14:56.203Z,12.30
2022-12-26T20:17:27.957Z,13.90
2022-12-26T20:19:59.848Z,14.90
2022-12-26T20:22:32.183Z,12.90
2022-12-26T20:25:05.639Z,12.70
2022-12-26T20:27:38.329Z,13.50
2022-12-26T20:30:13.946Z,12.90
2022-12-26T20:32:47.809Z,12.80
2022-12-26T20:35:19.543Z,15.20
2022-12-26T20:37:51.992Z,17.40
2022-12-26T20:40:25.968Z,13.80
2022-12-26T20:43:00.130Z,14.70
2022-12-26T20:45:31.969Z,17.20
2022-12-26T20:48:04.328Z,15.30
2022-12-26T20:50:36.338Z,15.10
2022-12-26T20:53:07.934Z,15.30
2022-12-26T20:55:42.362Z,13.60
2022-12-26T20:58:14.530Z,15.70
2022-12-26T21:00:47.356Z,14.20
2022-12-26T21:03:19.765Z,16.90
2022-12-26T21:05:52.116Z,15.60
2022-12-26T21:08:23.863Z,19.40
2022-12-26T21:10:56.692Z,15.50
2022-12-26T21:13:28.960Z,15.80
2022-12-26T21:16:09.763Z,14.60
2022-12-26T21:18:44.025Z,14.40
2022-12-26T21:21:18.138Z,18.10
2022-12-26T21:23:50.836Z,17.00
2022-12-26T21:26:22.418Z,17.10
2022-12-26T21:28:58.104Z,14.70
2022-12-26T21:31:31.140Z,15.40
2022-12-26T21:34:03.612Z,15.40
2022-12-26T21:36:35.653Z,15.00
2022-12-26T21:39:12.188Z,13.80
2022-12-26T21:41:44.116Z,16.00
2022-12-26T21:44:15.701Z,18.70
2022-12-26T21:46:47.353Z,16.60
2022-12-26T21:49:18.941Z,16.50
2022-12-26T21:51:50.633Z,18.90
2022-12-26T21:54:46.508Z,25.20
2022-12-26T21:57:21.101Z,28.10
2022-12-26T22:00:00.250Z,24.30
2022-12-26T22:02:51.359Z,28.10
2022-12-26T22:05:25.227Z,23.90
2022-12-26T22:08:00.281Z,20.70
2022-12-26T22:10:52.279Z,19.20
2022-12-26T22:13:26.038Z,17.40
2022-12-26T22:16:08.520Z,20.50
2022-12-26T22:18:42.333Z,20.20
2022-12-26T22:21:16.766Z,17.70
2022-12-26T22:23:50.784Z,18.00
2022-12-26T22:26:24.540Z,21.50
2022-12-26T22:28:56.248Z,19.50
2022-12-26T22:31:30.293Z,19.00
2022-12-26T22:34:04.171Z,18.20
2022-12-26T22:36:36.805Z,20.10
2022-12-26T22:39:09.141Z,20.70
2022-12-26T22:41:41.198Z,21.40
2022-12-26T22:44:13.313Z,24.30
2022-12-26T22:46:45.987Z,19.40
2022-12-26T22:49:17.923Z,21.80
2022-12-26T22:51:51.209Z,18.70
2022-12-26T22:54:22.853Z,18.50
2022-12-26T22:56:54.464Z,20.30
2022-12-26T22:59:57.970Z,18.60
2022-12-26T23:02:19.859Z,22.20
2022-12-26T23:04:52.779Z,18.00
2022-12-26T23:07:25.294Z,18.40
2022-12-26T23:09:57.289Z,17.20
2022-12-26T23:12:46.004Z,23.20
2022-12-26T23:15:21.874Z,19.70
2022-12-26T23:18:14.369Z,22.20
2022-12-26T23:21:04.073Z,21.30
2022-12-26T23:23:36.879Z,19.00
2022-12-26T23:26:08.695Z,19.20
2022-12-26T23:28:57.504Z,19.70
2022-12-26T23:31:29.392Z,18.60
2022-12-26T23:34:01.088Z,18.70
2022-12-26T23:36:32.751Z,20.00
2022-12-26T23:39:04.598Z,21.00
2022-12-26T23:41:36.214Z,17.90
2022-12-26T23:44:08.144Z,20.00
2022-12-26T23:46:40.477Z,17.20
2022-12-26T23:49:13.332Z,17.20
2022-12-26T23:51:46.487Z,14.80
2022-12-26T23:54:18.016Z,15.30
2022-12-26T23:56:49.707Z,13.90
2022-12-26T23:59:21.398Z,15.20
